Time;durP1;ratioP1;P1;durP2;ratioP2;P2;SDS_P1;SDS_P2;PMS_P1;PMS_P2;Temp;Humidity;BMP_temperature;BMP_pressure;BME280_temperature;BME280_humidity;BME280_pressure;Samples;Min_cycle;Max_cycle;Signal;HPM_P1;HPM_P2
2022/04/04 00:00:08;;;;;;;8.35;7.03;;;;;;;;;;6157808;23;20445;-82
2022/04/04 00:02:36;;;;;;;4.95;4.55;;;;;;;;;;6157439;23;20025;-82
2022/04/04 00:05:05;;;;;;;7.25;6.13;;;;;;;;;;6163830;23;20058;-82
2022/04/04 00:07:33;;;;;;;5.55;5.05;;;;;;;;;;6133069;23;20195;-82
2022/04/04 00:10:02;;;;;;;7.78;5.13;;;;;;;;;;6159399;23;20357;-82
2022/04/04 00:12:30;;;;;;;6.20;5.63;;;;;;;;;;6166113;23;20013;-82
2022/04/04 00:14:58;;;;;;;5.90;4.65;;;;;;;;;;6133512;23;20020;-82
2022/04/04 00:17:26;;;;;;;6.25;4.47;;;;;;;;;;6132613;23;20029;-82
2022/04/04 00:19:54;;;;;;;6.18;5.43;;;;;;;;;;6132693;23;20055;-82
2022/04/04 00:22:22;;;;;;;7.90;6.03;;;;;;;;;;6158568;23;20017;-82
2022/04/04 00:24:50;;;;;;;8.18;4.75;;;;;;;;;;6156614;23;20028;-81
2022/04/04 00:27:18;;;;;;;4.80;4.22;;;;;;;;;;6132844;23;20021;-82
2022/04/04 00:29:47;;;;;;;4.68;4.28;;;;;;;;;;6132382;23;20029;-81
2022/04/04 00:32:15;;;;;;;5.70;5.18;;;;;;;;;;6131970;23;20471;-81
2022/04/04 00:34:44;;;;;;;5.32;3.97;;;;;;;;;;6167834;23;20025;-82
2022/04/04 00:37:12;;;;;;;5.88;5.38;;;;;;;;;;6162854;23;20032;-81
2022/04/04 00:39:40;;;;;;;19.17;5.90;;;;;;;;;;6132626;23;20055;-81
2022/04/04 00:42:08;;;;;;;6.15;5.55;;;;;;;;;;6131991;23;20040;-81
2022/04/04 00:44:36;;;;;;;8.10;4.97;;;;;;;;;;6133856;23;20021;-89
2022/04/04 00:47:05;;;;;;;5.00;4.55;;;;;;;;;;6197260;23;20013;-88
2022/04/04 00:49:37;;;;;;;7.85;4.20;;;;;;;;;;6191135;23;20028;-88
2022/04/04 00:52:05;;;;;;;5.72;5.13;;;;;;;;;;6136490;23;20024;-89
2022/04/04 00:54:33;;;;;;;6.72;6.13;;;;;;;;;;6155292;23;20480;-88
2022/04/04 00:57:02;;;;;;;6.50;5.75;;;;;;;;;;6161248;23;20349;-88
2022/04/04 00:59:30;;;;;;;5.78;5.32;;;;;;;;;;6166053;23;20333;-88
2022/04/04 01:01:58;;;;;;;10.93;5.95;;;;;;;;;;6158041;23;20017;-89
2022/04/04 01:04:27;;;;;;;5.90;5.40;;;;;;;;;;6113028;23;20018;-88
2022/04/04 01:07:07;;;;;;;7.32;4.72;;;;;;;;;;6153600;23;20013;-87
2022/04/04 01:09:36;;;;;;;6.18;4.70;;;;;;;;;;6156180;23;20028;-89
2022/04/04 01:12:11;;;;;;;7.13;4.63;;;;;;;;;;6105270;23;20377;-88
2022/04/04 01:14:41;;;;;;;6.63;5.30;;;;;;;;;;6153932;23;20449;-88
2022/04/04 01:17:10;;;;;;;6.30;5.68;;;;;;;;;;6158189;23;20024;-86
2022/04/04 01:19:45;;;;;;;11.90;5.45;;;;;;;;;;6137839;23;20010;-87
2022/04/04 01:22:17;;;;;;;6.90;5.28;;;;;;;;;;6151940;23;20323;-87
2022/04/04 01:24:45;;;;;;;5.80;5.32;;;;;;;;;;6138189;23;20357;-87
2022/04/04 01:27:13;;;;;;;5.65;5.20;;;;;;;;;;6164021;23;20013;-87
2022/04/04 01:29:42;;;;;;;6.88;5.18;;;;;;;;;;6131787;23;20037;-88
2022/04/04 01:32:10;;;;;;;6.03;5.45;;;;;;;;;;6152999;23;20017;-87
2022/04/04 01:34:38;;;;;;;6.53;5.93;;;;;;;;;;6152518;23;20040;-87
2022/04/04 01:37:06;;;;;;;7.88;7.25;;;;;;;;;;6133814;23;20025;-87
2022/04/04 01:39:34;;;;;;;6.03;5.20;;;;;;;;;;6163464;23;20032;-86
2022/04/04 01:42:03;;;;;;;6.30;5.80;;;;;;;;;;6154107;23;20042;-86
2022/04/04 01:44:31;;;;;;;9.80;7.15;;;;;;;;;;6151621;23;20014;-86
2022/04/04 01:47:00;;;;;;;5.72;4.63;;;;;;;;;;6137801;23;20337;-85
2022/04/04 01:49:28;;;;;;;5.03;4.53;;;;;;;;;;6150843;23;20030;-86
2022/04/04 01:51:56;;;;;;;6.65;5.30;;;;;;;;;;6162200;23;20020;-86
2022/04/04 01:54:24;;;;;;;7.85;5.93;;;;;;;;;;6163103;23;20024;-86
2022/04/04 01:56:52;;;;;;;6.10;5.15;;;;;;;;;;6189917;23;20048;-86
2022/04/04 01:59:20;;;;;;;5.43;4.88;;;;;;;;;;6193474;23;20032;-86
2022/04/04 02:01:49;;;;;;;4.50;4.13;;;;;;;;;;6186043;23;20021;-85
2022/04/04 02:04:17;;;;;;;7.57;6.88;;;;;;;;;;6191692;23;20013;-86
2022/04/04 02:06:46;;;;;;;5.85;5.32;;;;;;;;;;6192901;23;20017;-85
2022/04/04 02:09:14;;;;;;;11.10;6.85;;;;;;;;;;6160819;23;20028;-86
2022/04/04 02:11:43;;;;;;;5.50;4.75;;;;;;;;;;6166614;23;20017;-85
2022/04/04 02:14:11;;;;;;;6.90;6.30;;;;;;;;;;6184226;23;20028;-85
2022/04/04 02:16:39;;;;;;;5.05;4.45;;;;;;;;;;6190695;23;20436;-82
2022/04/04 02:19:08;;;;;;;9.55;4.85;;;;;;;;;;6128379;23;20449;-84
2022/04/04 02:21:37;;;;;;;7.72;5.05;;;;;;;;;;6152902;23;20028;-86
2022/04/04 02:24:05;;;;;;;6.93;4.45;;;;;;;;;;6127332;23;20025;-86
2022/04/04 02:26:33;;;;;;;5.63;5.07;;;;;;;;;;6153381;23;20353;-84
2022/04/04 02:29:01;;;;;;;5.25;4.38;;;;;;;;;;6186024;23;20028;-84
2022/04/04 02:31:29;;;;;;;5.78;5.25;;;;;;;;;;6129695;23;20024;-82
2022/04/04 02:33:58;;;;;;;6.00;4.60;;;;;;;;;;6182238;23;20024;-85
2022/04/04 02:36:27;;;;;;;5.78;5.28;;;;;;;;;;6189285;23;20020;-85
2022/04/04 02:38:55;;;;;;;6.88;5.55;;;;;;;;;;6161302;23;20020;-86
2022/04/04 02:41:24;;;;;;;6.05;5.30;;;;;;;;;;6184974;23;20025;-83
2022/04/04 02:43:53;;;;;;;5.53;4.93;;;;;;;;;;6190707;23;20013;-84
2022/04/04 02:46:21;;;;;;;10.43;5.43;;;;;;;;;;6181409;23;20025;-85
2022/04/04 02:48:49;;;;;;;5.13;4.63;;;;;;;;;;6186075;23;20356;-84
2022/04/04 02:51:17;;;;;;;8.05;5.18;;;;;;;;;;6129866;23;20021;-85
2022/04/04 02:53:45;;;;;;;7.07;5.50;;;;;;;;;;6154905;23;20032;-84
2022/04/04 02:56:29;;;;;;;6.43;5.03;;;;;;;;;;6190704;23;20020;-84
2022/04/04 02:58:59;;;;;;;5.30;4.80;;;;;;;;;;6127830;23;20032;-84
2022/04/04 03:01:27;;;;;;;8.27;6.57;;;;;;;;;;6179888;23;20024;-86
2022/04/04 03:03:55;;;;;;;6.20;5.40;;;;;;;;;;6190046;23;20020;-85
2022/04/04 03:06:23;;;;;;;6.10;5.50;;;;;;;;;;6154586;23;20056;-82
2022/04/04 03:08:51;;;;;;;12.48;5.78;;;;;;;;;;6184094;23;20044;-86
2022/04/04 03:11:19;;;;;;;5.80;5.30;;;;;;;;;;6190265;23;20444;-84
2022/04/04 03:13:47;;;;;;;5.88;5.35;;;;;;;;;;6128383;23;20021;-85
2022/04/04 03:16:16;;;;;;;7.65;4.65;;;;;;;;;;6128179;23;20021;-85
2022/04/04 03:18:44;;;;;;;8.55;7.00;;;;;;;;;;6162784;23;20016;-85
2022/04/04 03:21:12;;;;;;;8.23;5.03;;;;;;;;;;6128541;23;20021;-86
2022/04/04 03:23:40;;;;;;;5.40;4.93;;;;;;;;;;6187850;23;20013;-85
2022/04/04 03:26:09;;;;;;;6.25;5.25;;;;;;;;;;6181564;23;20021;-84
2022/04/04 03:28:38;;;;;;;7.10;5.63;;;;;;;;;;6127537;23;20032;-84
2022/04/04 03:31:06;;;;;;;5.35;4.70;;;;;;;;;;6129234;23;20414;-85
2022/04/04 03:33:35;;;;;;;10.23;7.35;;;;;;;;;;6154554;23;20029;-85
2022/04/04 03:36:03;;;;;;;8.88;5.57;;;;;;;;;;6131195;23;20020;-84
2022/04/04 03:38:31;;;;;;;7.40;5.75;;;;;;;;;;6152012;23;20017;-83
2022/04/04 03:41:00;;;;;;;9.52;6.35;;;;;;;;;;6130550;23;20017;-85
2022/04/04 03:43:28;;;;;;;7.05;6.35;;;;;;;;;;6192063;23;20017;-85
2022/04/04 03:45:56;;;;;;;6.47;5.63;;;;;;;;;;6181660;23;20380;-86
2022/04/04 03:48:24;;;;;;;7.60;5.00;;;;;;;;;;6189644;23;20024;-85
2022/04/04 03:50:54;;;;;;;6.50;5.78;;;;;;;;;;6191620;23;20017;-84
2022/04/04 03:53:23;;;;;;;9.98;6.78;;;;;;;;;;6184254;23;20021;-84
2022/04/04 03:55:52;;;;;;;6.75;5.90;;;;;;;;;;6131030;23;20021;-86
2022/04/04 03:58:20;;;;;;;8.32;7.00;;;;;;;;;;6181849;23;20033;-83
2022/04/04 04:00:48;;;;;;;10.15;6.07;;;;;;;;;;6188664;23;20021;-85
2022/04/04 04:03:16;;;;;;;8.23;5.70;;;;;;;;;;6130728;23;20598;-85
2022/04/04 04:05:44;;;;;;;12.20;7.05;;;;;;;;;;6158216;23;20024;-83
2022/04/04 04:08:12;;;;;;;9.63;6.20;;;;;;;;;;6188375;23;20016;-84
2022/04/04 04:10:40;;;;;;;11.65;7.20;;;;;;;;;;6180755;23;20487;-86
2022/04/04 04:13:08;;;;;;;9.38;5.95;;;;;;;;;;6187511;23;20013;-86
2022/04/04 04:15:36;;;;;;;8.38;7.03;;;;;;;;;;6165909;23;20020;-86
2022/04/04 04:18:04;;;;;;;5.90;5.10;;;;;;;;;;6156419;23;20051;-85
2022/04/04 04:20:34;;;;;;;6.05;5.65;;;;;;;;;;6189438;23;20519;-84
2022/04/04 04:23:04;;;;;;;6.30;5.78;;;;;;;;;;6163123;23;20058;-82
2022/04/04 04:25:33;;;;;;;5.85;5.35;;;;;;;;;;6130263;23;20029;-85
2022/04/04 04:28:02;;;;;;;8.05;6.95;;;;;;;;;;6154393;23;20013;-85
2022/04/04 04:30:31;;;;;;;5.53;4.45;;;;;;;;;;6154124;23;20043;-87
2022/04/04 04:32:59;;;;;;;8.43;6.80;;;;;;;;;;6153622;23;20036;-85
2022/04/04 04:35:28;;;;;;;7.80;6.15;;;;;;;;;;6191606;23;20013;-86
2022/04/04 04:37:56;;;;;;;12.43;8.30;;;;;;;;;;6152216;23;20025;-84
2022/04/04 04:40:24;;;;;;;6.75;6.10;;;;;;;;;;6163772;23;20039;-84
2022/04/04 04:42:52;;;;;;;7.68;6.28;;;;;;;;;;6154737;23;20025;-83
2022/04/04 04:45:20;;;;;;;11.57;7.78;;;;;;;;;;6160106;23;20508;-86
2022/04/04 04:47:49;;;;;;;5.95;5.07;;;;;;;;;;6190295;23;20017;-84
2022/04/04 04:50:18;;;;;;;8.60;7.05;;;;;;;;;;6182152;23;20036;-84
2022/04/04 04:52:47;;;;;;;7.70;5.97;;;;;;;;;;6187150;23;20028;-81
2022/04/04 04:55:16;;;;;;;11.90;7.60;;;;;;;;;;6184031;23;20020;-86
2022/04/04 04:57:44;;;;;;;12.30;8.20;;;;;;;;;;6186659;23;20033;-88
2022/04/04 05:00:14;;;;;;;10.45;6.03;;;;;;;;;;6194528;23;20021;-87
2022/04/04 05:02:42;;;;;;;8.07;6.30;;;;;;;;;;6157031;23;20029;-87
2022/04/04 05:05:10;;;;;;;11.52;8.38;;;;;;;;;;6189745;23;20021;-88
2022/04/04 05:07:38;;;;;;;10.50;8.15;;;;;;;;;;6193818;23;20017;-88
2022/04/04 05:10:06;;;;;;;11.07;7.57;;;;;;;;;;6185620;23;20021;-88
2022/04/04 05:12:35;;;;;;;7.95;6.80;;;;;;;;;;6156776;23;20388;-88
2022/04/04 05:15:03;;;;;;;7.32;6.18;;;;;;;;;;6194066;23;20013;-88
2022/04/04 05:17:31;;;;;;;8.93;6.75;;;;;;;;;;6156771;23;20021;-88
2022/04/04 05:19:59;;;;;;;11.70;8.18;;;;;;;;;;6132699;23;20014;-88
2022/04/04 05:22:28;;;;;;;8.32;6.18;;;;;;;;;;6184106;23;20017;-88
2022/04/04 05:24:56;;;;;;;7.22;6.53;;;;;;;;;;6156090;23;20028;-89
2022/04/04 05:27:25;;;;;;;7.78;5.45;;;;;;;;;;6157876;23;20021;-88
2022/04/04 05:29:53;;;;;;;9.23;6.32;;;;;;;;;;6160476;23;20062;-89
2022/04/04 05:32:21;;;;;;;7.85;7.07;;;;;;;;;;6132724;23;20039;-89
2022/04/04 05:34:49;;;;;;;23.77;7.53;;;;;;;;;;6167601;23;20017;-88
2022/04/04 05:37:17;;;;;;;6.50;6.00;;;;;;;;;;6162626;23;20537;-89
2022/04/04 05:39:48;;;;;;;14.82;8.27;;;;;;;;;;6193840;23;20032;-90
2022/04/04 05:42:16;;;;;;;13.95;9.15;;;;;;;;;;6158385;23;20021;-89
2022/04/04 05:44:44;;;;;;;18.38;9.88;;;;;;;;;;6165124;23;20030;-90
2022/04/04 05:47:14;;;;;;;20.95;11.55;;;;;;;;;;6168814;23;20017;-90
2022/04/04 05:49:43;;;;;;;24.00;9.90;;;;;;;;;;6160242;23;20039;-89
2022/04/04 05:52:11;;;;;;;33.63;10.60;;;;;;;;;;6133556;23;20341;-89
2022/04/04 05:54:53;;;;;;;16.20;10.57;;;;;;;;;;6182040;23;20024;-90
2022/04/04 05:57:22;;;;;;;20.33;9.27;;;;;;;;;;6188495;23;20025;-90
2022/04/04 05:59:51;;;;;;;13.80;6.65;;;;;;;;;;6193423;23;20020;-90
2022/04/04 06:02:19;;;;;;;13.25;10.80;;;;;;;;;;6159085;23;20021;-89
2022/04/04 06:04:49;;;;;;;12.55;10.50;;;;;;;;;;6190217;23;20020;-89
2022/04/04 06:07:17;;;;;;;15.13;11.05;;;;;;;;;;6157900;23;20020;-89
2022/04/04 06:09:46;;;;;;;12.38;9.75;;;;;;;;;;6188296;23;20036;-89
2022/04/04 06:12:14;;;;;;;14.00;9.80;;;;;;;;;;6193679;23;20017;-83
2022/04/04 06:14:42;;;;;;;15.30;10.38;;;;;;;;;;6181128;23;20032;-83
2022/04/04 06:17:12;;;;;;;13.45;8.30;;;;;;;;;;6162357;23;20060;-83
2022/04/04 06:19:41;;;;;;;15.48;7.65;;;;;;;;;;6130514;23;20048;-83
2022/04/04 06:22:10;;;;;;;8.75;7.00;;;;;;;;;;6183859;23;20040;-83
2022/04/04 06:24:38;;;;;;;11.77;8.30;;;;;;;;;;6189802;23;20040;-83
2022/04/04 06:27:07;;;;;;;9.40;8.20;;;;;;;;;;6193050;23;20009;-82
2022/04/04 06:29:36;;;;;;;10.20;8.50;;;;;;;;;;6186652;23;20036;-83
2022/04/04 06:32:04;;;;;;;9.63;7.05;;;;;;;;;;6193549;23;20013;-83
2022/04/04 06:34:32;;;;;;;8.18;7.07;;;;;;;;;;6184304;23;20401;-83
2022/04/04 06:37:07;;;;;;;10.60;9.65;;;;;;;;;;6190304;23;20482;-83
2022/04/04 06:39:35;;;;;;;6.05;5.45;;;;;;;;;;6193955;23;20009;-82
2022/04/04 06:42:03;;;;;;;12.00;7.78;;;;;;;;;;6185639;23;20044;-82
2022/04/04 06:44:31;;;;;;;12.95;8.02;;;;;;;;;;6191871;23;20009;-81
2022/04/04 06:46:59;;;;;;;14.93;6.70;;;;;;;;;;6192929;23;20009;-81
2022/04/04 06:49:28;;;;;;;6.13;5.35;;;;;;;;;;6187100;23;20478;-81
2022/04/04 06:51:56;;;;;;;7.65;5.28;;;;;;;;;;6195336;23;20013;-81
2022/04/04 06:54:25;;;;;;;8.68;5.30;;;;;;;;;;6157768;23;20032;-81
2022/04/04 06:56:55;;;;;;;5.95;5.40;;;;;;;;;;6191913;23;20460;-81
2022/04/04 06:59:23;;;;;;;6.60;5.05;;;;;;;;;;6194677;23;20013;-81
2022/04/04 07:01:51;;;;;;;7.22;6.30;;;;;;;;;;6157793;23;20032;-81
2022/04/04 07:04:19;;;;;;;4.63;4.20;;;;;;;;;;6193623;23;20017;-80
2022/04/04 07:06:47;;;;;;;11.50;5.65;;;;;;;;;;6194437;23;20017;-81
2022/04/04 07:09:15;;;;;;;5.32;4.90;;;;;;;;;;6190670;23;20544;-80
2022/04/04 07:11:43;;;;;;;5.80;5.20;;;;;;;;;;6197906;23;20452;-81
2022/04/04 07:14:11;;;;;;;5.80;4.95;;;;;;;;;;6189156;23;20025;-80
2022/04/04 07:16:39;;;;;;;4.30;4.00;;;;;;;;;;6161110;23;20021;-80
2022/04/04 07:19:09;;;;;;;6.35;4.38;;;;;;;;;;6196827;23;20617;-81
2022/04/04 07:21:37;;;;;;;4.60;4.03;;;;;;;;;;6190915;23;20025;-81
2022/04/04 07:24:06;;;;;;;4.38;3.97;;;;;;;;;;6196987;23;20013;-82
2022/04/04 07:26:34;;;;;;;5.97;3.53;;;;;;;;;;6185442;23;20028;-81
2022/04/04 07:29:02;;;;;;;3.58;3.25;;;;;;;;;;6192269;23;20064;-80
2022/04/04 07:31:30;;;;;;;4.18;3.75;;;;;;;;;;6197191;23;20091;-81
2022/04/04 07:33:58;;;;;;;6.20;5.60;;;;;;;;;;6188326;23;20025;-81
2022/04/04 07:36:26;;;;;;;6.75;4.60;;;;;;;;;;6195740;23;20016;-80
2022/04/04 07:38:54;;;;;;;4.50;4.13;;;;;;;;;;6196390;23;20013;-80
2022/04/04 07:41:22;;;;;;;3.83;3.53;;;;;;;;;;6191037;23;20025;-81
2022/04/04 07:43:50;;;;;;;4.35;3.75;;;;;;;;;;6169444;23;20013;-81
2022/04/04 07:46:18;;;;;;;2.90;2.65;;;;;;;;;;6185997;23;20036;-81
2022/04/04 07:48:47;;;;;;;8.55;4.20;;;;;;;;;;6191241;23;20028;-80
2022/04/04 07:51:15;;;;;;;4.85;3.40;;;;;;;;;;6158687;23;20017;-81
2022/04/04 07:53:43;;;;;;;4.05;3.65;;;;;;;;;;6186497;23;20017;-81
2022/04/04 07:56:11;;;;;;;6.53;3.25;;;;;;;;;;6194346;23;20017;-80
2022/04/04 07:58:39;;;;;;;5.85;4.82;;;;;;;;;;6183355;23;20464;-81
2022/04/04 08:01:07;;;;;;;3.22;2.92;;;;;;;;;;6190139;23;20029;-81
2022/04/04 08:03:35;;;;;;;6.03;4.25;;;;;;;;;;6194200;23;20324;-81
2022/04/04 08:06:04;;;;;;;3.50;3.28;;;;;;;;;;6186181;23;20028;-82
2022/04/04 08:08:32;;;;;;;4.60;4.03;;;;;;;;;;6191399;23;20009;-81
2022/04/04 08:11:02;;;;;;;4.20;3.40;;;;;;;;;;6195386;23;20393;-81
2022/04/04 08:13:30;;;;;;;3.75;3.25;;;;;;;;;;6188375;23;20356;-81
2022/04/04 08:16:00;;;;;;;4.53;4.13;;;;;;;;;;6195208;23;20020;-82
2022/04/04 08:18:28;;;;;;;4.30;3.60;;;;;;;;;;6183900;23;20028;-82
2022/04/04 08:21:01;;;;;;;5.22;3.20;;;;;;;;;;6165582;23;20044;-82
2022/04/04 08:23:31;;;;;;;4.78;3.63;;;;;;;;;;6167560;23;20442;-82
2022/04/04 08:26:00;;;;;;;5.50;4.65;;;;;;;;;;6186463;23;20021;-82
2022/04/04 08:28:28;;;;;;;4.00;3.67;;;;;;;;;;6192326;23;20017;-83
2022/04/04 08:30:57;;;;;;;4.05;3.65;;;;;;;;;;6168063;23;20013;-82
2022/04/04 08:33:27;;;;;;;7.03;3.42;;;;;;;;;;6162414;23;20025;-81
2022/04/04 08:35:57;;;;;;;3.70;3.25;;;;;;;;;;6194334;23;20009;-82
2022/04/04 08:38:25;;;;;;;4.32;3.63;;;;;;;;;;6183433;23;20021;-82
2022/04/04 08:40:54;;;;;;;4.05;3.75;;;;;;;;;;6190764;23;20028;-82
2022/04/04 08:43:22;;;;;;;4.68;3.67;;;;;;;;;;6193581;23;20436;-82
2022/04/04 08:45:50;;;;;;;4.15;3.58;;;;;;;;;;6187622;23;20365;-81
2022/04/04 08:48:18;;;;;;;3.45;3.15;;;;;;;;;;6193142;23;20463;-81
2022/04/04 08:50:47;;;;;;;3.40;2.92;;;;;;;;;;6193938;23;20020;-81
2022/04/04 08:53:16;;;;;;;4.00;3.70;;;;;;;;;;6162371;23;20025;-82
2022/04/04 08:55:44;;;;;;;4.32;3.97;;;;;;;;;;6185753;23;20590;-82
2022/04/04 08:58:12;;;;;;;3.70;3.40;;;;;;;;;;6157921;23;20021;-81
2022/04/04 09:00:40;;;;;;;3.45;3.15;;;;;;;;;;6157012;23;20349;-81
2022/04/04 09:03:09;;;;;;;5.80;2.97;;;;;;;;;;6193080;23;20020;-81
2022/04/04 09:05:57;;;;;;;5.25;3.50;;;;;;;;;;6186556;23;20017;-81
2022/04/04 09:08:26;;;;;;;3.58;3.28;;;;;;;;;;6192296;23;20452;-81
2022/04/04 09:11:00;;;;;;;3.88;3.50;;;;;;;;;;6193341;23;20009;-81
2022/04/04 09:13:34;;;;;;;4.70;4.32;;;;;;;;;;6129913;23;20261;-80
2022/04/04 09:16:03;;;;;;;4.57;4.18;;;;;;;;;;6164515;23;20017;-80
2022/04/04 09:18:37;;;;;;;5.47;4.97;;;;;;;;;;6181843;23;20040;-84
2022/04/04 09:21:06;;;;;;;5.55;3.95;;;;;;;;;;6162480;23;20029;-81
2022/04/04 09:23:34;;;;;;;6.85;5.43;;;;;;;;;;6193006;23;20017;-81
2022/04/04 09:26:04;;;;;;;3.85;3.42;;;;;;;;;;6185458;23;20029;-81
2022/04/04 09:28:32;;;;;;;7.25;4.65;;;;;;;;;;6190940;23;20024;-82
2022/04/04 09:31:10;;;;;;;7.97;6.25;;;;;;;;;;6167782;23;20013;-80
2022/04/04 09:33:39;;;;;;;4.47;4.05;;;;;;;;;;6187831;23;20028;-81
2022/04/04 09:36:07;;;;;;;5.40;4.45;;;;;;;;;;6194357;23;20009;-81
2022/04/04 09:38:36;;;;;;;4.50;4.13;;;;;;;;;;6182266;23;20043;-81
2022/04/04 09:41:20;;;;;;;4.15;3.72;;;;;;;;;;6188822;23;20674;-82
2022/04/04 09:43:54;;;;;;;5.07;4.43;;;;;;;;;;6166591;23;20329;-81
2022/04/04 09:46:22;;;;;;;3.83;3.53;;;;;;;;;;6156900;23;20456;-82
2022/04/04 09:49:10;;;;;;;4.97;3.70;;;;;;;;;;6190595;23;20032;-80
2022/04/04 09:51:40;;;;;;;4.68;3.85;;;;;;;;;;6167365;23;20017;-78
2022/04/04 09:54:09;;;;;;;5.63;4.68;;;;;;;;;;6156009;23;20032;-81
2022/04/04 09:56:38;;;;;;;6.25;5.03;;;;;;;;;;6164688;23;20040;-82
2022/04/04 09:59:06;;;;;;;4.50;4.10;;;;;;;;;;6193026;23;20020;-81
2022/04/04 10:01:34;;;;;;;9.80;5.10;;;;;;;;;;6186522;23;20021;-82
2022/04/04 10:04:02;;;;;;;3.67;3.38;;;;;;;;;;6154725;23;20532;-83
2022/04/04 10:06:31;;;;;;;4.93;4.53;;;;;;;;;;6182605;23;20028;-81
2022/04/04 10:09:01;;;;;;;5.40;4.97;;;;;;;;;;6129919;23;20483;-83
2022/04/04 10:11:34;;;;;;;5.63;4.22;;;;;;;;;;6131152;23;20017;-83
2022/04/04 10:14:03;;;;;;;5.55;4.90;;;;;;;;;;6131190;23;20352;-87
2022/04/04 10:16:33;;;;;;;6.97;6.32;;;;;;;;;;6140017;23;20013;-88
2022/04/04 10:19:01;;;;;;;6.17;5.60;;;;;;;;;;6131247;23;20021;-88
2022/04/04 10:21:50;;;;;;;5.75;4.22;;;;;;;;;;6156372;23;20245;-90
2022/04/04 10:24:19;;;;;;;4.90;4.40;;;;;;;;;;6106627;23;20471;-87
2022/04/04 10:26:52;;;;;;;7.22;6.60;;;;;;;;;;6131935;23;20017;-89
2022/04/04 10:29:24;;;;;;;6.88;6.25;;;;;;;;;;6136401;23;20021;-88
2022/04/04 10:31:56;;;;;;;5.00;4.50;;;;;;;;;;6155546;23;20025;-88
2022/04/04 10:34:26;;;;;;;5.55;5.05;;;;;;;;;;6130311;23;20032;-89
2022/04/04 10:36:59;;;;;;;6.22;5.18;;;;;;;;;;6138177;23;20025;-90
2022/04/04 10:39:40;;;;;;;4.65;4.15;;;;;;;;;;6129717;23;20028;-86
2022/04/04 10:45:56;;;;;;;9.45;5.30;;;;;;;;;;6129485;23;20033;-83
2022/04/04 10:48:59;;;;;;;8.77;6.90;;;;;;;;;;6129818;23;20009;-82
2022/04/04 10:51:29;;;;;;;7.65;6.65;;;;;;;;;;6128888;23;20028;-82
2022/04/04 10:54:10;;;;;;;6.53;5.72;;;;;;;;;;6153636;23;20032;-81
2022/04/04 10:56:47;;;;;;;5.00;4.50;;;;;;;;;;6154140;23;20017;-82
2022/04/04 10:59:21;;;;;;;6.53;4.22;;;;;;;;;;6180808;23;20013;-83
2022/04/04 11:01:51;;;;;;;6.93;4.93;;;;;;;;;;6183377;23;20025;-85
2022/04/04 11:04:36;;;;;;;9.75;6.80;;;;;;;;;;6152621;23;20036;-82
2022/04/04 11:10:09;;;;;;;4.22;3.83;;;;;;;;;;6145502;23;20029;-86
2022/04/04 11:12:56;;;;;;;8.02;5.53;;;;;;;;;;6188044;23;20032;-81
2022/04/04 11:15:42;;;;;;;5.63;5.13;;;;;;;;;;6164534;23;20029;-81
2022/04/04 11:18:11;;;;;;;5.65;4.88;;;;;;;;;;6181088;23;20025;-82
2022/04/04 11:20:54;;;;;;;4.88;4.40;;;;;;;;;;6186871;23;20013;-81
2022/04/04 11:23:27;;;;;;;7.75;6.03;;;;;;;;;;6188171;23;20096;-85
2022/04/04 11:26:20;;;;;;;8.35;6.28;;;;;;;;;;6140236;23;20477;-83
2022/04/04 11:28:51;;;;;;;6.97;6.38;;;;;;;;;;6160089;23;20021;-82
2022/04/04 11:31:31;;;;;;;7.80;7.20;;;;;;;;;;6153420;23;20013;-83
2022/04/04 11:34:00;;;;;;;7.68;4.78;;;;;;;;;;6155942;23;20021;-84
2022/04/04 11:36:32;;;;;;;6.82;5.00;;;;;;;;;;6188107;23;20013;-81
2022/04/04 11:39:03;;;;;;;7.50;5.75;;;;;;;;;;6187069;23;20009;-84
2022/04/04 11:41:36;;;;;;;7.88;6.13;;;;;;;;;;6128325;23;20025;-84
2022/04/04 11:44:05;;;;;;;7.03;5.28;;;;;;;;;;6190025;23;20009;-85
2022/04/04 11:46:34;;;;;;;7.93;6.28;;;;;;;;;;6180054;23;20025;-83
2022/04/04 11:49:18;;;;;;;5.82;5.22;;;;;;;;;;6170377;23;20029;-83
2022/04/04 11:51:50;;;;;;;9.10;4.97;;;;;;;;;;6189629;23;20024;-83
2022/04/04 11:54:35;;;;;;;6.25;5.28;;;;;;;;;;6179972;23;20025;-83
2022/04/04 11:57:28;;;;;;;7.00;6.20;;;;;;;;;;6160146;23;20463;-81
2022/04/04 12:00:36;;;;;;;7.15;5.05;;;;;;;;;;6153310;23;20033;-83
2022/04/04 12:03:16;;;;;;;8.13;6.07;;;;;;;;;;6164888;23;20013;-84
2022/04/04 12:07:17;;;;;;;7.28;5.30;;;;;;;;;;6002292;23;20042;-84
2022/04/04 12:09:51;;;;;;;9.20;5.75;;;;;;;;;;5968708;23;20066;-84
2022/04/04 12:18:03;;;;;;;4.93;4.28;;;;;;;;;;5916275;23;20037;-85
2022/04/04 12:21:51;;;;;;;7.30;5.43;;;;;;;;;;5890968;24;20034;-85
2022/04/04 12:25:00;;;;;;;8.07;6.18;;;;;;;;;;5866916;24;20049;-86
2022/04/04 12:27:33;;;;;;;7.85;5.53;;;;;;;;;;5979287;24;20024;-84
2022/04/04 12:30:13;;;;;;;9.60;6.77;;;;;;;;;;5978497;24;20032;-85
2022/04/04 12:32:41;;;;;;;7.47;5.88;;;;;;;;;;6031640;23;20584;-83
2022/04/04 12:35:28;;;;;;;8.57;7.78;;;;;;;;;;6100103;23;20026;-83
2022/04/04 12:41:45;;;;;;;7.65;6.88;;;;;;;;;;6092163;23;20022;-85
2022/04/04 12:44:19;;;;;;;7.25;6.55;;;;;;;;;;6067623;23;20014;-85
2022/04/04 12:47:15;;;;;;;7.20;4.85;;;;;;;;;;6053024;23;20037;-84
2022/04/04 12:49:44;;;;;;;7.88;6.35;;;;;;;;;;6056322;23;20022;-85
2022/04/04 12:52:32;;;;;;;6.50;5.90;;;;;;;;;;6098519;23;20082;-84
2022/04/04 12:55:16;;;;;;;12.48;6.28;;;;;;;;;;6181447;23;20510;-84
2022/04/04 12:57:46;;;;;;;9.18;5.68;;;;;;;;;;6168361;23;20475;-84
2022/04/04 13:00:38;;;;;;;6.03;5.10;;;;;;;;;;6192952;23;20009;-84
2022/04/04 13:03:27;;;;;;;7.00;5.97;;;;;;;;;;6117230;23;20471;-83
2022/04/04 13:06:11;;;;;;;12.85;6.13;;;;;;;;;;6184421;23;20029;-84
2022/04/04 13:08:40;;;;;;;6.80;6.20;;;;;;;;;;6189068;23;20032;-84
2022/04/04 13:11:10;;;;;;;6.53;5.43;;;;;;;;;;6191902;23;20028;-83
2022/04/04 13:14:00;;;;;;;7.30;6.38;;;;;;;;;;6186159;23;20036;-84
2022/04/04 13:16:33;;;;;;;9.05;5.97;;;;;;;;;;6190490;23;20016;-83
2022/04/04 13:19:06;;;;;;;12.30;8.02;;;;;;;;;;6191133;23;20344;-84
2022/04/04 13:21:36;;;;;;;9.20;7.40;;;;;;;;;;6159491;23;20036;-84
2022/04/04 13:24:13;;;;;;;8.48;6.50;;;;;;;;;;6190831;23;20017;-84
2022/04/04 13:26:51;;;;;;;9.45;6.72;;;;;;;;;;6178213;23;20029;-83
2022/04/04 13:29:27;;;;;;;9.38;7.28;;;;;;;;;;6154456;23;20032;-83
2022/04/04 13:31:58;;;;;;;8.15;6.53;;;;;;;;;;6130522;23;20021;-84
2022/04/04 13:34:46;;;;;;;8.77;7.18;;;;;;;;;;6181437;23;20052;-83
2022/04/04 13:37:22;;;;;;;8.73;7.53;;;;;;;;;;6185277;23;20637;-83
2022/04/04 13:39:55;;;;;;;9.73;8.27;;;;;;;;;;6181055;23;20017;-84
2022/04/04 13:42:37;;;;;;;6.90;5.97;;;;;;;;;;6182148;23;20033;-83
2022/04/04 13:45:05;;;;;;;10.10;7.35;;;;;;;;;;6187785;23;20465;-84
2022/04/04 13:48:03;;;;;;;;;;;;;;;;;;;;;
2022/04/04 13:50:38;;;;;;;10.38;8.00;;;;;;;;;;6181803;23;20029;-84
2022/04/04 13:53:13;;;;;;;8.73;7.32;;;;;;;;;;6155245;23;20464;-83
2022/04/04 13:56:19;;;;;;;9.13;6.30;;;;;;;;;;6116042;23;20021;-83
2022/04/04 13:59:40;;;;;;;7.10;6.40;;;;;;;;;;6183466;23;20040;-84
2022/04/04 14:02:25;;;;;;;9.82;7.65;;;;;;;;;;6035104;23;20389;-82
2022/04/04 14:05:56;;;;;;;8.73;6.47;;;;;;;;;;6016578;23;20464;-77
2022/04/04 14:08:24;;;;;;;9.40;7.22;;;;;;;;;;6123872;23;20253;-77
2022/04/04 14:10:55;;;;;;;9.93;7.30;;;;;;;;;;6096948;23;20029;-81
2022/04/04 14:13:23;;;;;;;10.38;7.50;;;;;;;;;;6124709;23;20042;-82
2022/04/04 14:15:51;;;;;;;8.93;8.02;;;;;;;;;;6128694;23;20029;-84
2022/04/04 14:18:21;;;;;;;7.70;6.90;;;;;;;;;;6070347;23;20037;-83
2022/04/04 14:20:49;;;;;;;8.63;6.32;;;;;;;;;;6127070;23;20033;-85
2022/04/04 14:23:17;;;;;;;9.15;7.65;;;;;;;;;;6097902;23;20022;-84
2022/04/04 14:25:45;;;;;;;14.38;10.90;;;;;;;;;;6098321;23;20030;-83
2022/04/04 14:28:13;;;;;;;10.77;9.65;;;;;;;;;;6123731;23;20018;-88
2022/04/04 14:30:41;;;;;;;7.97;6.38;;;;;;;;;;6100893;23;20349;-83
2022/04/04 14:33:10;;;;;;;8.05;5.88;;;;;;;;;;6131180;23;20025;-83
2022/04/04 14:35:38;;;;;;;9.13;7.05;;;;;;;;;;6136232;23;20021;-82
2022/04/04 14:38:10;;;;;;;6.95;6.22;;;;;;;;;;6152940;23;20048;-82
2022/04/04 14:40:41;;;;;;;8.18;6.88;;;;;;;;;;6100818;23;20043;-83
2022/04/04 14:43:09;;;;;;;11.88;8.23;;;;;;;;;;6101974;23;20013;-84
2022/04/04 14:45:37;;;;;;;5.72;5.18;;;;;;;;;;6156115;23;20524;-84
2022/04/04 14:48:07;;;;;;;9.15;7.13;;;;;;;;;;6136246;23;20302;-83
2022/04/04 14:50:36;;;;;;;9.30;8.40;;;;;;;;;;6151890;23;20028;-84
2022/04/04 14:53:05;;;;;;;9.77;7.70;;;;;;;;;;6157987;23;20029;-85
2022/04/04 14:55:55;;;;;;;7.72;6.35;;;;;;;;;;6153258;23;20026;-86
2022/04/04 14:58:25;;;;;;;10.57;8.63;;;;;;;;;;6101047;23;20036;-83
2022/04/04 15:00:53;;;;;;;9.73;6.55;;;;;;;;;;6160004;23;20029;-84
2022/04/04 15:03:21;;;;;;;7.85;6.70;;;;;;;;;;6126312;23;20234;-84
2022/04/04 15:05:49;;;;;;;7.93;7.00;;;;;;;;;;6155091;23;20026;-85
2022/04/04 15:08:17;;;;;;;8.43;6.95;;;;;;;;;;6133817;23;20432;-83
2022/04/04 15:10:46;;;;;;;10.05;8.30;;;;;;;;;;6136669;23;20013;-83
2022/04/04 15:13:14;;;;;;;7.50;6.65;;;;;;;;;;6125574;23;20021;-83
2022/04/04 15:15:42;;;;;;;10.85;7.75;;;;;;;;;;6162236;23;20028;-83
2022/04/04 15:18:21;;;;;;;8.75;7.85;;;;;;;;;;6102780;23;20033;-83
2022/04/04 15:20:49;;;;;;;10.18;9.20;;;;;;;;;;6124696;23;20025;-83
2022/04/04 15:23:17;;;;;;;11.55;8.77;;;;;;;;;;6135195;23;20432;-82